Terminal Aerodrome Forecast
Issued by NWS

Home | Current Version | Previous Version | Text Only | Print | Product List | Glossary On
Versions: 1 2 3 4 5 6 7 8 9 10 11 12 13 14 15 16 17 18
000
FTUS44 KCRP 281131
TAFLRD
TAF
KLRD 281131Z 2812/0112 13006KT 5SM BR BKN014 OVC250
      TEMPO 2812/2814 3SM BR OVC010
     FM281600 17010G18KT P6SM SCT020 BKN250
     FM282100 20008KT P6SM BKN250
     FM010300 12012KT P6SM BKN250
     FM010800 14006KT 5SM BR SCT008
      TEMPO 0108/0112 BKN008=

USA.gov is the U.S. government's official web portal to all federal, state and local government web resources and services.